sensor_id;sensor_type;location;lat;lon;timestamp;temperature;humidity
10583;DHT22;33679;51.218;6.786;2023-05-16T00:01:45;15.60;99.90
10583;DHT22;33679;51.218;6.786;2023-05-16T00:04:18;15.60;99.90
10583;DHT22;33679;51.218;6.786;2023-05-16T00:06:51;15.50;99.90
10583;DHT22;33679;51.218;6.786;2023-05-16T00:09:23;15.50;99.90
10583;DHT22;33679;51.218;6.786;2023-05-16T00:11:57;15.40;99.90
10583;DHT22;33679;51.218;6.786;2023-05-16T00:14:30;15.20;99.90
10583;DHT22;33679;51.218;6.786;2023-05-16T00:17:03;15.10;99.90
10583;DHT22;33679;51.218;6.786;2023-05-16T00:19:41;15.10;99.90
10583;DHT22;33679;51.218;6.786;2023-05-16T00:22:22;15.10;99.90
10583;DHT22;33679;51.218;6.786;2023-05-16T00:24:54;15.00;99.90
10583;DHT22;33679;51.218;6.786;2023-05-16T00:27:29;15.00;99.90
10583;DHT22;33679;51.218;6.786;2023-05-16T00:30:01;14.90;99.90
10583;DHT22;33679;51.218;6.786;2023-05-16T00:32:34;14.90;99.90
10583;DHT22;33679;51.218;6.786;2023-05-16T00:35:07;15.00;99.90
10583;DHT22;33679;51.218;6.786;2023-05-16T00:37:41;15.00;99.90
10583;DHT22;33679;51.218;6.786;2023-05-16T00:40:14;14.90;99.90
10583;DHT22;33679;51.218;6.786;2023-05-16T00:42:50;14.80;99.90
10583;DHT22;33679;51.218;6.786;2023-05-16T00:45:23;14.80;99.90
10583;DHT22;33679;51.218;6.786;2023-05-16T00:47:55;14.80;99.90
10583;DHT22;33679;51.218;6.786;2023-05-16T00:50:27;14.70;99.90
10583;DHT22;33679;51.218;6.786;2023-05-16T00:53:00;14.60;99.90
10583;DHT22;33679;51.218;6.786;2023-05-16T00:55:33;14.60;99.90
10583;DHT22;33679;51.218;6.786;2023-05-16T00:58:10;14.60;99.90
10583;DHT22;33679;51.218;6.786;2023-05-16T01:00:45;14.60;99.90
10583;DHT22;33679;51.218;6.786;2023-05-16T01:03:18;14.60;99.90
10583;DHT22;33679;51.218;6.786;2023-05-16T01:05:51;14.60;99.90
10583;DHT22;33679;51.218;6.786;2023-05-16T01:08:23;14.60;99.90
10583;DHT22;33679;51.218;6.786;2023-05-16T01:11:00;14.60;99.90
10583;DHT22;33679;51.218;6.786;2023-05-16T01:13:43;14.60;99.90
10583;DHT22;33679;51.218;6.786;2023-05-16T01:16:21;14.60;99.90
10583;DHT22;33679;51.218;6.786;2023-05-16T01:19:02;14.60;99.90
10583;DHT22;33679;51.218;6.786;2023-05-16T01:21:43;14.60;99.90
10583;DHT22;33679;51.218;6.786;2023-05-16T01:24:22;14.50;99.90
10583;DHT22;33679;51.218;6.786;2023-05-16T01:26:59;14.50;99.90
10583;DHT22;33679;51.218;6.786;2023-05-16T01:29:34;14.50;99.90
10583;DHT22;33679;51.218;6.786;2023-05-16T01:32:08;14.40;99.90
10583;DHT22;33679;51.218;6.786;2023-05-16T01:34:40;14.30;99.90
10583;DHT22;33679;51.218;6.786;2023-05-16T01:37:17;14.30;99.90
10583;DHT22;33679;51.218;6.786;2023-05-16T01:40:01;14.20;99.90
10583;DHT22;33679;51.218;6.786;2023-05-16T01:42:44;14.20;99.90
10583;DHT22;33679;51.218;6.786;2023-05-16T01:45:21;14.10;99.90
10583;DHT22;33679;51.218;6.786;2023-05-16T01:48:02;14.10;99.90
10583;DHT22;33679;51.218;6.786;2023-05-16T01:50:38;14.00;99.90
10583;DHT22;33679;51.218;6.786;2023-05-16T01:53:14;13.90;99.90
10583;DHT22;33679;51.218;6.786;2023-05-16T01:55:51;14.00;99.90
10583;DHT22;33679;51.218;6.786;2023-05-16T01:58:29;14.00;99.90
10583;DHT22;33679;51.218;6.786;2023-05-16T02:01:04;13.90;99.90
10583;DHT22;33679;51.218;6.786;2023-05-16T02:03:37;13.90;99.90
10583;DHT22;33679;51.218;6.786;2023-05-16T02:06:10;13.90;99.90
10583;DHT22;33679;51.218;6.786;2023-05-16T02:08:49;13.90;99.90
10583;DHT22;33679;51.218;6.786;2023-05-16T02:11:22;13.80;99.90
10583;DHT22;33679;51.218;6.786;2023-05-16T02:13:57;13.80;99.90
10583;DHT22;33679;51.218;6.786;2023-05-16T02:16:30;13.70;99.90
10583;DHT22;33679;51.218;6.786;2023-05-16T02:19:03;13.70;99.90
10583;DHT22;33679;51.218;6.786;2023-05-16T02:21:36;13.70;99.90
10583;DHT22;33679;51.218;6.786;2023-05-16T02:24:11;13.70;99.90
10583;DHT22;33679;51.218;6.786;2023-05-16T02:26:47;13.70;99.90
10583;DHT22;33679;51.218;6.786;2023-05-16T02:29:20;13.70;99.90
10583;DHT22;33679;51.218;6.786;2023-05-16T02:31:53;13.80;99.90
10583;DHT22;33679;51.218;6.786;2023-05-16T02:34:29;13.80;99.90
10583;DHT22;33679;51.218;6.786;2023-05-16T02:37:01;13.90;99.90
10583;DHT22;33679;51.218;6.786;2023-05-16T02:39:35;13.90;99.90
10583;DHT22;33679;51.218;6.786;2023-05-16T02:42:07;13.90;99.90
10583;DHT22;33679;51.218;6.786;2023-05-16T02:44:41;13.90;99.90
10583;DHT22;33679;51.218;6.786;2023-05-16T02:47:14;13.90;99.90
10583;DHT22;33679;51.218;6.786;2023-05-16T02:49:47;14.00;99.90
10583;DHT22;33679;51.218;6.786;2023-05-16T02:52:19;14.00;99.90
10583;DHT22;33679;51.218;6.786;2023-05-16T02:54:52;13.90;99.90
10583;DHT22;33679;51.218;6.786;2023-05-16T02:57:24;13.90;99.90
10583;DHT22;33679;51.218;6.786;2023-05-16T02:59:58;13.80;99.90
10583;DHT22;33679;51.218;6.786;2023-05-16T03:02:30;13.80;99.90
10583;DHT22;33679;51.218;6.786;2023-05-16T03:05:04;13.70;99.90
10583;DHT22;33679;51.218;6.786;2023-05-16T03:07:40;13.70;99.90
10583;DHT22;33679;51.218;6.786;2023-05-16T03:10:12;13.60;99.90
10583;DHT22;33679;51.218;6.786;2023-05-16T03:12:45;13.50;99.90
10583;DHT22;33679;51.218;6.786;2023-05-16T03:15:19;13.60;99.90
10583;DHT22;33679;51.218;6.786;2023-05-16T03:17:52;13.60;99.90
10583;DHT22;33679;51.218;6.786;2023-05-16T03:20:24;13.70;99.90
10583;DHT22;33679;51.218;6.786;2023-05-16T03:22:56;13.60;99.90
10583;DHT22;33679;51.218;6.786;2023-05-16T03:25:29;13.60;99.90
10583;DHT22;33679;51.218;6.786;2023-05-16T03:28:01;13.60;99.90
10583;DHT22;33679;51.218;6.786;2023-05-16T03:30:35;13.60;99.90
10583;DHT22;33679;51.218;6.786;2023-05-16T03:33:08;13.60;99.90
10583;DHT22;33679;51.218;6.786;2023-05-16T03:35:41;13.50;99.90
10583;DHT22;33679;51.218;6.786;2023-05-16T03:38:14;13.50;99.90
10583;DHT22;33679;51.218;6.786;2023-05-16T03:40:48;13.50;99.90
10583;DHT22;33679;51.218;6.786;2023-05-16T03:43:21;13.40;99.90
10583;DHT22;33679;51.218;6.786;2023-05-16T03:45:55;13.30;99.90
10583;DHT22;33679;51.218;6.786;2023-05-16T03:48:29;13.20;99.90
10583;DHT22;33679;51.218;6.786;2023-05-16T03:51:01;13.20;99.90
10583;DHT22;33679;51.218;6.786;2023-05-16T03:53:34;13.10;99.90
10583;DHT22;33679;51.218;6.786;2023-05-16T03:56:06;13.10;99.90
10583;DHT22;33679;51.218;6.786;2023-05-16T03:58:38;13.00;99.90
10583;DHT22;33679;51.218;6.786;2023-05-16T04:01:12;13.00;99.90
10583;DHT22;33679;51.218;6.786;2023-05-16T04:03:45;13.00;99.90
10583;DHT22;33679;51.218;6.786;2023-05-16T04:06:22;12.90;99.90
10583;DHT22;33679;51.218;6.786;2023-05-16T04:08:54;13.00;99.90
10583;DHT22;33679;51.218;6.786;2023-05-16T04:11:29;13.00;99.90
10583;DHT22;33679;51.218;6.786;2023-05-16T04:14:03;13.10;99.90
10583;DHT22;33679;51.218;6.786;2023-05-16T04:16:38;13.10;99.90
10583;DHT22;33679;51.218;6.786;2023-05-16T04:19:10;13.20;99.90
10583;DHT22;33679;51.218;6.786;2023-05-16T04:21:43;13.30;99.90
10583;DHT22;33679;51.218;6.786;2023-05-16T04:24:17;13.30;99.90
10583;DHT22;33679;51.218;6.786;2023-05-16T04:26:50;13.30;99.90
10583;DHT22;33679;51.218;6.786;2023-05-16T04:29:22;13.20;99.90
10583;DHT22;33679;51.218;6.786;2023-05-16T04:31:56;13.10;99.90
10583;DHT22;33679;51.218;6.786;2023-05-16T04:34:28;13.00;99.90
10583;DHT22;33679;51.218;6.786;2023-05-16T04:37:01;13.00;99.90
10583;DHT22;33679;51.218;6.786;2023-05-16T04:39:35;12.90;99.90
10583;DHT22;33679;51.218;6.786;2023-05-16T04:42:08;12.80;99.90
10583;DHT22;33679;51.218;6.786;2023-05-16T04:44:40;12.80;99.90
10583;DHT22;33679;51.218;6.786;2023-05-16T04:47:16;12.70;99.90
10583;DHT22;33679;51.218;6.786;2023-05-16T04:49:48;12.80;99.90
10583;DHT22;33679;51.218;6.786;2023-05-16T04:52:22;12.90;99.90
10583;DHT22;33679;51.218;6.786;2023-05-16T04:54:54;12.90;99.90
10583;DHT22;33679;51.218;6.786;2023-05-16T04:57:29;12.90;99.90
10583;DHT22;33679;51.218;6.786;2023-05-16T05:00:01;13.00;99.90
10583;DHT22;33679;51.218;6.786;2023-05-16T05:02:37;13.00;99.90
10583;DHT22;33679;51.218;6.786;2023-05-16T05:05:10;13.10;99.90
10583;DHT22;33679;51.218;6.786;2023-05-16T05:07:42;13.20;99.90
10583;DHT22;33679;51.218;6.786;2023-05-16T05:10:14;13.30;99.90
10583;DHT22;33679;51.218;6.786;2023-05-16T05:12:47;13.30;99.90
10583;DHT22;33679;51.218;6.786;2023-05-16T05:15:19;13.30;99.90
10583;DHT22;33679;51.218;6.786;2023-05-16T05:17:54;13.40;99.90
10583;DHT22;33679;51.218;6.786;2023-05-16T05:20:26;13.40;99.90
10583;DHT22;33679;51.218;6.786;2023-05-16T05:22:58;13.50;99.90
10583;DHT22;33679;51.218;6.786;2023-05-16T05:25:31;13.50;99.90
10583;DHT22;33679;51.218;6.786;2023-05-16T05:28:04;13.50;99.90
10583;DHT22;33679;51.218;6.786;2023-05-16T05:30:37;13.50;99.90
10583;DHT22;33679;51.218;6.786;2023-05-16T05:33:15;13.50;99.90
10583;DHT22;33679;51.218;6.786;2023-05-16T05:35:50;13.60;99.90
10583;DHT22;33679;51.218;6.786;2023-05-16T05:38:24;13.60;99.90
10583;DHT22;33679;51.218;6.786;2023-05-16T05:40:56;13.60;99.90
10583;DHT22;33679;51.218;6.786;2023-05-16T05:43:28;13.60;99.90
10583;DHT22;33679;51.218;6.786;2023-05-16T05:46:03;13.60;99.90
10583;DHT22;33679;51.218;6.786;2023-05-16T05:48:37;13.80;99.90
10583;DHT22;33679;51.218;6.786;2023-05-16T05:51:10;13.90;99.90
10583;DHT22;33679;51.218;6.786;2023-05-16T05:53:44;14.00;99.90
10583;DHT22;33679;51.218;6.786;2023-05-16T05:56:16;14.20;99.90
10583;DHT22;33679;51.218;6.786;2023-05-16T05:58:48;14.40;99.90
10583;DHT22;33679;51.218;6.786;2023-05-16T06:01:23;14.90;99.90
10583;DHT22;33679;51.218;6.786;2023-05-16T06:03:57;15.40;99.90
10583;DHT22;33679;51.218;6.786;2023-05-16T06:06:29;15.70;99.90
10583;DHT22;33679;51.218;6.786;2023-05-16T06:09:02;15.90;99.90
10583;DHT22;33679;51.218;6.786;2023-05-16T06:11:34;15.80;99.90
10583;DHT22;33679;51.218;6.786;2023-05-16T06:14:06;15.80;99.90
10583;DHT22;33679;51.218;6.786;2023-05-16T06:16:38;15.80;99.90
10583;DHT22;33679;51.218;6.786;2023-05-16T06:19:12;15.70;99.90
10583;DHT22;33679;51.218;6.786;2023-05-16T06:21:46;15.70;99.90
10583;DHT22;33679;51.218;6.786;2023-05-16T06:24:18;15.60;99.90
10583;DHT22;33679;51.218;6.786;2023-05-16T06:26:51;15.40;99.90
10583;DHT22;33679;51.218;6.786;2023-05-16T06:29:23;15.30;99.90
10583;DHT22;33679;51.218;6.786;2023-05-16T06:31:55;15.30;99.90
10583;DHT22;33679;51.218;6.786;2023-05-16T06:34:29;15.10;99.90
10583;DHT22;33679;51.218;6.786;2023-05-16T06:37:01;15.00;99.90
10583;DHT22;33679;51.218;6.786;2023-05-16T06:39:34;15.00;99.90
10583;DHT22;33679;51.218;6.786;2023-05-16T06:42:07;14.90;99.90
10583;DHT22;33679;51.218;6.786;2023-05-16T06:44:41;14.90;99.90
10583;DHT22;33679;51.218;6.786;2023-05-16T06:47:15;14.80;99.90
10583;DHT22;33679;51.218;6.786;2023-05-16T06:49:50;14.80;99.90
10583;DHT22;33679;51.218;6.786;2023-05-16T06:52:24;14.80;99.90
10583;DHT22;33679;51.218;6.786;2023-05-16T06:54:59;14.70;99.90
10583;DHT22;33679;51.218;6.786;2023-05-16T06:57:31;14.70;99.90
10583;DHT22;33679;51.218;6.786;2023-05-16T07:00:05;14.70;99.90
10583;DHT22;33679;51.218;6.786;2023-05-16T07:02:38;14.70;99.90
10583;DHT22;33679;51.218;6.786;2023-05-16T07:05:11;14.70;99.90
10583;DHT22;33679;51.218;6.786;2023-05-16T07:07:44;14.70;99.90
10583;DHT22;33679;51.218;6.786;2023-05-16T07:10:16;14.60;99.90
10583;DHT22;33679;51.218;6.786;2023-05-16T07:12:48;14.60;99.90
10583;DHT22;33679;51.218;6.786;2023-05-16T07:15:21;14.60;99.90
10583;DHT22;33679;51.218;6.786;2023-05-16T07:17:53;14.60;99.90
10583;DHT22;33679;51.218;6.786;2023-05-16T07:20:27;14.50;99.90
10583;DHT22;33679;51.218;6.786;2023-05-16T07:23:01;14.60;99.90
10583;DHT22;33679;51.218;6.786;2023-05-16T07:25:34;14.70;99.90
10583;DHT22;33679;51.218;6.786;2023-05-16T07:28:06;14.90;99.90
10583;DHT22;33679;51.218;6.786;2023-05-16T07:30:39;15.00;99.90
10583;DHT22;33679;51.218;6.786;2023-05-16T07:33:14;15.00;99.90
10583;DHT22;33679;51.218;6.786;2023-05-16T07:35:48;15.10;99.90
10583;DHT22;33679;51.218;6.786;2023-05-16T07:38:20;15.20;99.90
10583;DHT22;33679;51.218;6.786;2023-05-16T07:40:53;15.20;99.90
10583;DHT22;33679;51.218;6.786;2023-05-16T07:43:26;15.20;99.90
10583;DHT22;33679;51.218;6.786;2023-05-16T07:45:58;15.20;99.90
10583;DHT22;33679;51.218;6.786;2023-05-16T07:48:30;15.20;99.90
10583;DHT22;33679;51.218;6.786;2023-05-16T07:51:05;15.30;99.90
10583;DHT22;33679;51.218;6.786;2023-05-16T07:53:40;15.30;99.90
10583;DHT22;33679;51.218;6.786;2023-05-16T07:56:12;15.30;99.90
10583;DHT22;33679;51.218;6.786;2023-05-16T07:58:45;15.30;99.90
10583;DHT22;33679;51.218;6.786;2023-05-16T08:01:19;15.30;99.90
10583;DHT22;33679;51.218;6.786;2023-05-16T08:03:52;15.30;99.90
10583;DHT22;33679;51.218;6.786;2023-05-16T08:06:25;15.40;99.90
10583;DHT22;33679;51.218;6.786;2023-05-16T08:08:57;15.40;99.90
10583;DHT22;33679;51.218;6.786;2023-05-16T08:11:32;15.40;99.90
10583;DHT22;33679;51.218;6.786;2023-05-16T08:14:05;15.40;99.90
10583;DHT22;33679;51.218;6.786;2023-05-16T08:16:37;15.40;99.90
10583;DHT22;33679;51.218;6.786;2023-05-16T08:19:10;15.30;99.90
10583;DHT22;33679;51.218;6.786;2023-05-16T08:21:44;15.40;99.90
10583;DHT22;33679;51.218;6.786;2023-05-16T08:24:17;15.40;99.90
10583;DHT22;33679;51.218;6.786;2023-05-16T08:26:50;15.50;99.90
10583;DHT22;33679;51.218;6.786;2023-05-16T08:29:23;15.50;99.90
10583;DHT22;33679;51.218;6.786;2023-05-16T08:31:55;15.60;99.90
10583;DHT22;33679;51.218;6.786;2023-05-16T08:34:30;15.60;99.90
10583;DHT22;33679;51.218;6.786;2023-05-16T08:37:07;15.50;99.90
10583;DHT22;33679;51.218;6.786;2023-05-16T08:39:40;15.60;99.90
10583;DHT22;33679;51.218;6.786;2023-05-16T08:42:13;15.60;99.90
10583;DHT22;33679;51.218;6.786;2023-05-16T08:44:47;15.60;99.90
10583;DHT22;33679;51.218;6.786;2023-05-16T08:47:20;15.60;99.90
10583;DHT22;33679;51.218;6.786;2023-05-16T08:49:57;15.50;99.90
10583;DHT22;33679;51.218;6.786;2023-05-16T08:52:32;15.50;99.90
10583;DHT22;33679;51.218;6.786;2023-05-16T08:55:05;15.60;99.90
10583;DHT22;33679;51.218;6.786;2023-05-16T08:57:39;15.60;99.90
10583;DHT22;33679;51.218;6.786;2023-05-16T09:00:18;15.70;99.90
10583;DHT22;33679;51.218;6.786;2023-05-16T09:02:53;15.70;99.90
10583;DHT22;33679;51.218;6.786;2023-05-16T09:05:28;15.70;99.90
10583;DHT22;33679;51.218;6.786;2023-05-16T09:08:03;15.80;99.90
10583;DHT22;33679;51.218;6.786;2023-05-16T09:10:36;15.90;99.90
10583;DHT22;33679;51.218;6.786;2023-05-16T09:13:08;16.00;99.90
10583;DHT22;33679;51.218;6.786;2023-05-16T09:15:42;16.00;99.90
10583;DHT22;33679;51.218;6.786;2023-05-16T09:18:15;16.10;99.90
10583;DHT22;33679;51.218;6.786;2023-05-16T09:20:48;16.10;99.90
10583;DHT22;33679;51.218;6.786;2023-05-16T09:23:24;16.10;99.90
10583;DHT22;33679;51.218;6.786;2023-05-16T09:25:56;16.00;99.90
10583;DHT22;33679;51.218;6.786;2023-05-16T09:28:29;16.00;99.90
10583;DHT22;33679;51.218;6.786;2023-05-16T09:31:02;16.00;99.90
10583;DHT22;33679;51.218;6.786;2023-05-16T09:33:35;16.00;99.90
10583;DHT22;33679;51.218;6.786;2023-05-16T09:36:07;16.00;99.90
10583;DHT22;33679;51.218;6.786;2023-05-16T09:38:42;16.20;99.90
10583;DHT22;33679;51.218;6.786;2023-05-16T09:41:14;16.30;99.90
10583;DHT22;33679;51.218;6.786;2023-05-16T09:43:47;16.30;99.90
10583;DHT22;33679;51.218;6.786;2023-05-16T09:46:24;16.20;99.90
10583;DHT22;33679;51.218;6.786;2023-05-16T09:48:57;16.30;99.90
10583;DHT22;33679;51.218;6.786;2023-05-16T09:51:29;16.30;99.90
10583;DHT22;33679;51.218;6.786;2023-05-16T09:54:06;16.50;99.90
10583;DHT22;33679;51.218;6.786;2023-05-16T09:56:48;16.50;99.90
10583;DHT22;33679;51.218;6.786;2023-05-16T09:59:21;16.60;99.90
10583;DHT22;33679;51.218;6.786;2023-05-16T10:01:57;16.50;99.90
10583;DHT22;33679;51.218;6.786;2023-05-16T10:04:33;16.60;99.90
10583;DHT22;33679;51.218;6.786;2023-05-16T10:07:07;16.60;99.90
10583;DHT22;33679;51.218;6.786;2023-05-16T10:09:44;16.60;99.90
10583;DHT22;33679;51.218;6.786;2023-05-16T10:12:18;16.50;99.90
10583;DHT22;33679;51.218;6.786;2023-05-16T10:14:51;16.50;99.90
10583;DHT22;33679;51.218;6.786;2023-05-16T10:17:24;16.50;99.90
10583;DHT22;33679;51.218;6.786;2023-05-16T10:20:01;16.50;99.90
10583;DHT22;33679;51.218;6.786;2023-05-16T10:22:46;16.50;99.90
10583;DHT22;33679;51.218;6.786;2023-05-16T10:25:31;16.50;99.90
10583;DHT22;33679;51.218;6.786;2023-05-16T10:28:05;16.40;99.90
10583;DHT22;33679;51.218;6.786;2023-05-16T10:30:40;16.50;99.90
10583;DHT22;33679;51.218;6.786;2023-05-16T10:33:17;16.50;99.90
10583;DHT22;33679;51.218;6.786;2023-05-16T10:35:50;16.50;99.90
10583;DHT22;33679;51.218;6.786;2023-05-16T10:38:24;16.50;99.90
10583;DHT22;33679;51.218;6.786;2023-05-16T10:40:59;16.60;99.90
10583;DHT22;33679;51.218;6.786;2023-05-16T10:43:32;16.70;99.90
10583;DHT22;33679;51.218;6.786;2023-05-16T10:46:06;16.80;99.90
10583;DHT22;33679;51.218;6.786;2023-05-16T10:48:40;16.90;99.90
10583;DHT22;33679;51.218;6.786;2023-05-16T10:51:40;17.10;99.90
10583;DHT22;33679;51.218;6.786;2023-05-16T10:54:12;17.30;99.90
10583;DHT22;33679;51.218;6.786;2023-05-16T10:56:54;17.40;99.90
10583;DHT22;33679;51.218;6.786;2023-05-16T10:59:39;17.40;99.90
10583;DHT22;33679;51.218;6.786;2023-05-16T11:02:26;17.30;99.90
10583;DHT22;33679;51.218;6.786;2023-05-16T11:05:06;17.20;99.90
10583;DHT22;33679;51.218;6.786;2023-05-16T11:07:41;17.20;99.90
10583;DHT22;33679;51.218;6.786;2023-05-16T11:10:14;17.00;99.90
10583;DHT22;33679;51.218;6.786;2023-05-16T11:12:49;17.00;99.90
10583;DHT22;33679;51.218;6.786;2023-05-16T11:15:25;16.90;99.90
10583;DHT22;33679;51.218;6.786;2023-05-16T11:18:05;16.90;99.90
10583;DHT22;33679;51.218;6.786;2023-05-16T11:20:39;16.80;99.90
10583;DHT22;33679;51.218;6.786;2023-05-16T11:23:27;16.80;99.90
10583;DHT22;33679;51.218;6.786;2023-05-16T11:26:13;16.80;99.90
10583;DHT22;33679;51.218;6.786;2023-05-16T11:28:49;16.70;99.90
10583;DHT22;33679;51.218;6.786;2023-05-16T11:31:22;16.70;99.90
10583;DHT22;33679;51.218;6.786;2023-05-16T11:33:55;16.80;99.90
10583;DHT22;33679;51.218;6.786;2023-05-16T11:36:28;16.80;99.90
10583;DHT22;33679;51.218;6.786;2023-05-16T11:39:05;16.80;99.90
10583;DHT22;33679;51.218;6.786;2023-05-16T11:41:39;16.80;99.90
10583;DHT22;33679;51.218;6.786;2023-05-16T11:44:13;16.90;99.90
10583;DHT22;33679;51.218;6.786;2023-05-16T11:46:45;17.00;99.90
10583;DHT22;33679;51.218;6.786;2023-05-16T11:49:17;17.10;99.90
10583;DHT22;33679;51.218;6.786;2023-05-16T11:51:53;17.20;99.90
10583;DHT22;33679;51.218;6.786;2023-05-16T11:54:28;17.30;99.90
10583;DHT22;33679;51.218;6.786;2023-05-16T11:57:01;17.40;99.90
10583;DHT22;33679;51.218;6.786;2023-05-16T11:59:36;17.50;99.90
10583;DHT22;33679;51.218;6.786;2023-05-16T12:02:09;17.50;99.90
10583;DHT22;33679;51.218;6.786;2023-05-16T12:04:45;17.60;99.90
10583;DHT22;33679;51.218;6.786;2023-05-16T12:07:18;17.50;99.90
10583;DHT22;33679;51.218;6.786;2023-05-16T12:09:51;17.50;99.90
10583;DHT22;33679;51.218;6.786;2023-05-16T12:12:24;17.60;99.90
10583;DHT22;33679;51.218;6.786;2023-05-16T12:14:58;17.60;99.90
10583;DHT22;33679;51.218;6.786;2023-05-16T12:17:31;17.60;99.90
10583;DHT22;33679;51.218;6.786;2023-05-16T12:20:05;17.70;99.90
10583;DHT22;33679;51.218;6.786;2023-05-16T12:22:38;17.60;99.90
10583;DHT22;33679;51.218;6.786;2023-05-16T12:25:20;17.60;99.90
10583;DHT22;33679;51.218;6.786;2023-05-16T12:27:56;17.60;99.90
10583;DHT22;33679;51.218;6.786;2023-05-16T12:30:31;17.60;99.90
10583;DHT22;33679;51.218;6.786;2023-05-16T12:33:08;17.60;99.90
10583;DHT22;33679;51.218;6.786;2023-05-16T12:35:42;17.60;99.90
10583;DHT22;33679;51.218;6.786;2023-05-16T12:38:19;17.50;99.90
10583;DHT22;33679;51.218;6.786;2023-05-16T12:40:57;17.50;99.90
10583;DHT22;33679;51.218;6.786;2023-05-16T12:43:32;17.50;99.90
10583;DHT22;33679;51.218;6.786;2023-05-16T12:46:09;17.50;99.90
10583;DHT22;33679;51.218;6.786;2023-05-16T12:48:42;17.40;99.90
10583;DHT22;33679;51.218;6.786;2023-05-16T12:51:17;17.50;99.90
10583;DHT22;33679;51.218;6.786;2023-05-16T12:53:49;17.60;99.90
10583;DHT22;33679;51.218;6.786;2023-05-16T12:56:22;17.60;99.90
10583;DHT22;33679;51.218;6.786;2023-05-16T12:58:54;17.40;99.90
10583;DHT22;33679;51.218;6.786;2023-05-16T13:01:29;17.40;99.90
10583;DHT22;33679;51.218;6.786;2023-05-16T13:04:01;17.50;99.90
10583;DHT22;33679;51.218;6.786;2023-05-16T13:06:34;17.60;99.90
10583;DHT22;33679;51.218;6.786;2023-05-16T13:09:10;17.60;99.90
10583;DHT22;33679;51.218;6.786;2023-05-16T13:11:42;17.70;99.90
10583;DHT22;33679;51.218;6.786;2023-05-16T13:14:15;17.60;99.90
10583;DHT22;33679;51.218;6.786;2023-05-16T13:16:49;17.70;99.90
10583;DHT22;33679;51.218;6.786;2023-05-16T13:19:24;17.70;99.90
10583;DHT22;33679;51.218;6.786;2023-05-16T13:21:56;17.80;99.90
10583;DHT22;33679;51.218;6.786;2023-05-16T13:24:30;17.80;99.90
10583;DHT22;33679;51.218;6.786;2023-05-16T13:27:03;17.80;99.90
10583;DHT22;33679;51.218;6.786;2023-05-16T13:29:36;17.90;99.90
10583;DHT22;33679;51.218;6.786;2023-05-16T13:32:11;18.00;99.60
10583;DHT22;33679;51.218;6.786;2023-05-16T13:34:43;18.10;99.90
10583;DHT22;33679;51.218;6.786;2023-05-16T13:37:16;18.10;99.90
10583;DHT22;33679;51.218;6.786;2023-05-16T13:39:48;18.10;99.80
10583;DHT22;33679;51.218;6.786;2023-05-16T13:42:21;18.10;99.50
10583;DHT22;33679;51.218;6.786;2023-05-16T13:44:53;18.10;99.80
10583;DHT22;33679;51.218;6.786;2023-05-16T13:47:30;18.00;99.60
10583;DHT22;33679;51.218;6.786;2023-05-16T13:50:03;18.00;99.90
10583;DHT22;33679;51.218;6.786;2023-05-16T13:52:39;18.10;99.90
10583;DHT22;33679;51.218;6.786;2023-05-16T13:55:11;18.00;99.90
10583;DHT22;33679;51.218;6.786;2023-05-16T13:57:44;18.00;99.90
10583;DHT22;33679;51.218;6.786;2023-05-16T14:00:17;18.10;99.90
10583;DHT22;33679;51.218;6.786;2023-05-16T14:02:54;18.20;99.90
10583;DHT22;33679;51.218;6.786;2023-05-16T14:05:26;18.30;99.90
10583;DHT22;33679;51.218;6.786;2023-05-16T14:08:02;18.40;99.90
10583;DHT22;33679;51.218;6.786;2023-05-16T14:10:34;18.50;99.90
10583;DHT22;33679;51.218;6.786;2023-05-16T14:13:09;18.60;99.90
10583;DHT22;33679;51.218;6.786;2023-05-16T14:15:42;18.60;99.90
10583;DHT22;33679;51.218;6.786;2023-05-16T14:18:18;18.50;99.90
10583;DHT22;33679;51.218;6.786;2023-05-16T14:20:50;18.50;99.90
10583;DHT22;33679;51.218;6.786;2023-05-16T14:23:24;18.40;99.90
10583;DHT22;33679;51.218;6.786;2023-05-16T14:25:57;18.30;99.90
10583;DHT22;33679;51.218;6.786;2023-05-16T14:28:29;18.20;99.90
10583;DHT22;33679;51.218;6.786;2023-05-16T14:31:02;18.30;99.90
10583;DHT22;33679;51.218;6.786;2023-05-16T14:33:36;18.30;99.90
10583;DHT22;33679;51.218;6.786;2023-05-16T14:36:12;18.20;99.90
10583;DHT22;33679;51.218;6.786;2023-05-16T14:38:44;18.20;99.90
10583;DHT22;33679;51.218;6.786;2023-05-16T14:41:18;18.30;99.90
10583;DHT22;33679;51.218;6.786;2023-05-16T14:43:51;18.30;99.90
10583;DHT22;33679;51.218;6.786;2023-05-16T14:46:23;18.40;99.90
10583;DHT22;33679;51.218;6.786;2023-05-16T14:48:57;18.40;99.80
10583;DHT22;33679;51.218;6.786;2023-05-16T14:51:29;18.40;99.90
10583;DHT22;33679;51.218;6.786;2023-05-16T14:54:03;18.30;99.30
10583;DHT22;33679;51.218;6.786;2023-05-16T14:56:35;18.20;99.50
10583;DHT22;33679;51.218;6.786;2023-05-16T14:59:07;18.10;99.80
10583;DHT22;33679;51.218;6.786;2023-05-16T15:01:39;18.00;99.80
10583;DHT22;33679;51.218;6.786;2023-05-16T15:04:13;17.90;99.90
10583;DHT22;33679;51.218;6.786;2023-05-16T15:06:50;17.80;99.90
10583;DHT22;33679;51.218;6.786;2023-05-16T15:09:22;17.90;99.90
10583;DHT22;33679;51.218;6.786;2023-05-16T15:11:57;18.00;99.90
10583;DHT22;33679;51.218;6.786;2023-05-16T15:14:29;18.10;99.90
10583;DHT22;33679;51.218;6.786;2023-05-16T15:17:02;18.30;99.90
10583;DHT22;33679;51.218;6.786;2023-05-16T15:19:36;18.30;99.90
10583;DHT22;33679;51.218;6.786;2023-05-16T15:22:09;18.30;99.90
10583;DHT22;33679;51.218;6.786;2023-05-16T15:24:41;18.20;99.90
10583;DHT22;33679;51.218;6.786;2023-05-16T15:27:14;18.20;99.90
10583;DHT22;33679;51.218;6.786;2023-05-16T15:29:46;18.20;99.90
10583;DHT22;33679;51.218;6.786;2023-05-16T15:32:19;18.30;99.90
10583;DHT22;33679;51.218;6.786;2023-05-16T15:34:54;18.20;99.90
10583;DHT22;33679;51.218;6.786;2023-05-16T15:37:26;18.20;99.90
10583;DHT22;33679;51.218;6.786;2023-05-16T15:39:58;18.10;99.90
10583;DHT22;33679;51.218;6.786;2023-05-16T15:42:30;18.10;99.90
10583;DHT22;33679;51.218;6.786;2023-05-16T15:45:04;18.10;99.90
10583;DHT22;33679;51.218;6.786;2023-05-16T15:47:36;18.10;99.90
10583;DHT22;33679;51.218;6.786;2023-05-16T15:50:10;18.10;99.90
10583;DHT22;33679;51.218;6.786;2023-05-16T15:52:46;18.10;99.90
10583;DHT22;33679;51.218;6.786;2023-05-16T15:55:20;18.10;99.90
10583;DHT22;33679;51.218;6.786;2023-05-16T15:57:54;18.10;99.90
10583;DHT22;33679;51.218;6.786;2023-05-16T16:00:30;18.00;99.90
10583;DHT22;33679;51.218;6.786;2023-05-16T16:03:03;18.00;99.90
10583;DHT22;33679;51.218;6.786;2023-05-16T16:05:43;18.00;99.90
10583;DHT22;33679;51.218;6.786;2023-05-16T16:08:16;17.90;99.90
10583;DHT22;33679;51.218;6.786;2023-05-16T16:10:52;17.80;99.90
10583;DHT22;33679;51.218;6.786;2023-05-16T16:13:24;17.70;99.90